Time;durP1;ratioP1;P1;durP2;ratioP2;P2;SDS_P1;SDS_P2;PMS_P1;PMS_P2;Temp;Humidity;BMP_temperature;BMP_pressure;BME280_temperature;BME280_humidity;BME280_pressure;Samples;Min_cycle;Max_cycle;Signal;HPM_P1;HPM_P2
2021/04/11 00:02:17;;;;;;;20.10;10.27;;;179.20;1792.00;;;;;;5070882;28;20036;-71
2021/04/11 00:04:43;;;;;;;26.05;13.00;;;154.50;1792.00;;;;;;5070815;28;20100;-74
2021/04/11 00:07:09;;;;;;;25.63;13.55;;;154.50;1817.60;;;;;;5070656;28;20035;-71
2021/04/11 00:09:34;;;;;;;20.30;11.38;;;154.30;1843.20;;;;;;5070524;28;20077;-71
2021/04/11 00:12:00;;;;;;;17.10;9.75;;;154.30;1843.20;;;;;;5070647;28;20072;-71
2021/04/11 00:14:26;;;;;;;17.52;9.57;;;154.10;1868.80;;;;;;5070916;28;20039;-71
2021/04/11 00:16:52;;;;;;;16.77;9.93;;;153.80;1920.00;;;;;;5070102;28;20016;-71
2021/04/11 00:19:17;;;;;;;22.88;11.38;;;128.90;1971.20;;;;;;5070401;28;20030;-72
2021/04/11 00:21:43;;;;;;;25.42;14.98;;;128.90;1971.20;;;;;;5070679;28;20047;-72
2021/04/11 00:24:09;;;;;;;27.67;15.68;;;128.90;1945.60;;;;;;5070606;28;20070;-71
2021/04/11 00:26:35;;;;;;;32.20;17.70;;;153.60;1945.60;;;;;;5070259;28;20055;-74
2021/04/11 00:29:02;;;;;;;33.25;18.30;;;153.60;1971.20;;;;;;5070370;28;20494;-70
2021/04/11 00:31:28;;;;;;;30.58;16.92;;;153.60;1971.20;;;;;;5070568;28;20490;-71
2021/04/11 00:33:55;;;;;;;28.88;15.98;;;153.60;1996.80;;;;;;5070196;28;20039;-71
2021/04/11 00:36:21;;;;;;;30.10;16.20;;;153.60;1996.80;;;;;;5070320;28;20102;-71
2021/04/11 00:38:47;;;;;;;35.53;17.25;;;153.60;1971.20;;;;;;5069706;28;20056;-72
2021/04/11 00:41:32;;;;;;;31.40;16.42;;;153.60;1971.20;;;;;;5070329;28;20020;-75
2021/04/11 00:43:58;;;;;;;31.63;17.27;;;153.60;1996.80;;;;;;5070327;28;20145;-70
2021/04/11 00:46:39;;;;;;;30.63;16.50;;;128.90;1996.80;;;;;;5070352;28;20024;-70
2021/04/11 00:49:17;;;;;;;32.75;15.57;;;128.80;2022.40;;;;;;5070044;28;20047;-71
2021/04/11 00:51:43;;;;;;;24.58;13.55;;;128.80;2022.40;;;;;;5070579;28;20055;-71
2021/04/11 00:54:09;;;;;;;20.65;11.77;;;128.80;2022.40;;;;;;5069913;28;20020;-70
2021/04/11 00:56:38;;;;;;;21.88;11.20;;;128.90;2022.40;;;;;;5068304;28;20017;-71
2021/04/11 00:59:06;;;;;;;19.25;11.30;;;128.80;1996.80;;;;;;5069655;28;20021;-70
2021/04/11 01:01:33;;;;;;;15.93;9.00;;;128.70;1996.80;;;;;;5070484;28;20024;-72
2021/04/11 01:03:59;;;;;;;16.63;8.88;;;128.70;1971.20;;;;;;5070025;28;20086;-71
2021/04/11 01:06:32;;;;;;;17.00;8.93;;;128.50;2022.40;;;;;;5070016;28;20056;-70
2021/04/11 01:09:00;;;;;;;18.45;9.23;;;128.30;2048.00;;;;;;5069666;28;20020;-71
2021/04/11 01:11:31;;;;;;;16.38;8.52;;;128.20;2048.00;;;;;;5069824;28;20036;-71
2021/04/11 01:14:03;;;;;;;16.15;8.30;;;128.10;2073.60;;;;;;5070128;28;20577;-71
2021/04/11 01:16:30;;;;;;;19.90;9.48;;;128.10;2073.60;;;;;;5069925;28;20028;-71
2021/04/11 01:18:56;;;;;;;19.88;10.00;;;128.10;2073.60;;;;;;5071936;28;20023;-70
2021/04/11 01:21:51;;;;;;;20.92;12.45;;;128.10;2073.60;;;;;;5068535;28;20031;-70
2021/04/11 01:24:34;;;;;;;17.92;9.85;;;128.00;2099.20;;;;;;5063688;28;20036;-70
2021/04/11 01:27:01;;;;;;;13.40;7.38;;;128.00;2099.20;;;;;;5070909;28;20399;-69
2021/04/11 01:29:27;;;;;;;16.95;8.65;;;128.00;2073.60;;;;;;5079974;28;20506;-70
2021/04/11 01:31:53;;;;;;;20.52;10.48;;;128.10;2073.60;;;;;;5069948;28;20017;-71
2021/04/11 01:34:19;;;;;;;22.38;11.70;;;128.10;2099.20;;;;;;5070358;28;20032;-71
2021/04/11 01:36:50;;;;;;;21.23;12.88;;;128.20;2073.60;;;;;;5070194;28;20494;-72
2021/04/11 01:39:24;;;;;;;21.33;11.45;;;128.20;2099.20;;;;;;5069211;28;20025;-72
2021/04/11 01:41:54;;;;;;;15.95;9.30;;;128.20;2073.60;;;;;;5069900;28;20040;-72
2021/04/11 01:44:24;;;;;;;18.90;8.95;;;128.20;2073.60;;;;;;5069727;28;20025;-72
2021/04/11 01:46:51;;;;;;;;;;;128.30;2073.60;;;;;;5070239;28;20093;-72
2021/04/11 01:49:18;;;;;;;19.70;9.32;;;128.30;2073.60;;;;;;5071681;28;19998;-72
2021/04/11 01:52:13;;;;;;;18.40;10.07;;;128.20;2073.60;;;;;;5073785;28;20028;-72
2021/04/11 01:54:40;;;;;;;16.20;8.38;;;128.30;2073.60;;;;;;5071723;28;20353;-72
2021/04/11 01:57:22;;;;;;;21.73;10.43;;;128.30;2073.60;;;;;;5073449;28;20029;-73
2021/04/11 01:59:49;;;;;;;22.40;11.45;;;128.30;2073.60;;;;;;5072922;28;20051;-72
2021/04/11 02:02:17;;;;;;;23.75;12.13;;;128.40;2073.60;;;;;;5073596;28;20475;-75
2021/04/11 02:04:45;;;;;;;23.58;11.70;;;128.40;2073.60;;;;;;5072877;28;20032;-72
2021/04/11 02:07:13;;;;;;;21.60;11.52;;;128.40;2073.60;;;;;;5073127;28;20525;-72
2021/04/11 02:09:46;;;;;;;19.73;10.65;;;128.40;2073.60;;;;;;5072581;28;20028;-72
2021/04/11 02:12:14;;;;;;;19.75;10.82;;;128.40;2048.00;;;;;;5073001;28;20140;-72
2021/04/11 02:14:41;;;;;;;22.33;10.60;;;128.40;2048.00;;;;;;5072979;28;20024;-72
2021/04/11 02:17:07;;;;;;;17.13;9.02;;;128.40;2073.60;;;;;;5073422;28;20103;-71
2021/04/11 02:19:33;;;;;;;15.43;9.10;;;128.40;2048.00;;;;;;5072478;28;20435;-71
2021/04/11 02:22:06;;;;;;;21.40;10.95;;;128.40;2073.60;;;;;;5072944;28;20049;-75
2021/04/11 02:24:36;;;;;;;27.13;13.57;;;128.30;2099.20;;;;;;5072836;28;20024;-76
2021/04/11 02:27:01;;;;;;;19.90;10.85;;;128.30;2099.20;;;;;;5072793;28;20079;-71
2021/04/11 02:29:28;;;;;;;19.65;10.68;;;128.20;2099.20;;;;;;5072495;28;20421;-71
2021/04/11 02:31:54;;;;;;;22.08;11.52;;;128.30;2099.20;;;;;;5072761;28;20063;-70
2021/04/11 02:34:26;;;;;;;53.30;23.42;;;128.20;2099.20;;;;;;5072691;28;20538;-72
2021/04/11 02:37:01;;;;;;;73.15;29.10;;;128.00;2124.80;;;;;;5072467;28;20402;-73
2021/04/11 02:39:34;;;;;;;91.75;34.20;;;103.30;2124.80;;;;;;5072417;28;20028;-71
2021/04/11 02:42:03;;;;;;;61.13;25.08;;;103.20;2124.80;;;;;;5072719;28;20028;-72
2021/04/11 02:44:33;;;;;;;25.75;12.77;;;103.20;2150.40;;;;;;5072403;28;20059;-73
2021/04/11 02:46:58;;;;;;;23.53;11.67;;;103.20;2150.40;;;;;;5072346;28;20090;-70
2021/04/11 02:49:24;;;;;;;21.45;11.85;;;103.20;2150.40;;;;;;5072096;28;20024;-70
2021/04/11 02:51:53;;;;;;;21.23;11.75;;;103.20;2124.80;;;;;;5072884;28;20025;-71
2021/04/11 02:54:22;;;;;;;22.33;11.55;;;103.20;2150.40;;;;;;5072507;28;20028;-71
2021/04/11 02:56:48;;;;;;;25.10;12.55;;;103.20;2150.40;;;;;;5072265;28;20032;-71
2021/04/11 02:59:16;;;;;;;24.15;13.35;;;103.20;2150.40;;;;;;5071683;28;20111;-71
2021/04/11 03:01:46;;;;;;;25.02;12.73;;;103.20;2176.00;;;;;;5071999;28;20030;-72
2021/04/11 03:04:18;;;;;;;24.77;12.87;;;103.20;2201.60;;;;;;5071977;28;20032;-74
2021/04/11 03:06:53;;;;;;;24.90;12.52;;;103.20;2176.00;;;;;;5070872;28;20643;-75
2021/04/11 03:09:31;;;;;;;23.88;12.73;;;103.20;2176.00;;;;;;5071491;28;20036;-74
2021/04/11 03:11:57;;;;;;;30.25;14.02;;;103.20;2176.00;;;;;;5071979;28;20045;-71
2021/04/11 03:14:29;;;;;;;203.10;52.63;;;103.20;2176.00;;;;;;5071902;28;20029;-70
2021/04/11 03:16:56;;;;;;;97.30;33.20;;;103.10;2201.60;;;;;;5071807;28;20021;-72
2021/04/11 03:19:29;;;;;;;28.00;13.05;;;103.00;2201.60;;;;;;5071124;28;20070;-71
2021/04/11 03:21:55;;;;;;;64.90;25.55;;;103.00;2176.00;;;;;;5071599;28;20542;-75
2021/04/11 03:24:21;;;;;;;24.38;10.98;;;102.90;2201.60;;;;;;5071964;28;20040;-71
2021/04/11 03:27:09;;;;;;;20.02;8.70;;;102.60;2227.20;;;;;;5071315;28;20142;-71
2021/04/11 03:29:45;;;;;;;16.35;8.50;;;77.70;2227.20;;;;;;5071376;28;20028;-72
2021/04/11 03:32:31;;;;;;;17.90;8.90;;;77.50;2227.20;;;;;;5071438;28;20060;-72
2021/04/11 03:34:59;;;;;;;12.85;6.53;;;77.60;2227.20;;;;;;5071022;28;20604;-72
2021/04/11 03:37:27;;;;;;;10.88;6.00;;;77.40;2227.20;;;;;;5071646;28;20039;-71
2021/04/11 03:39:54;;;;;;;15.07;7.40;;;77.40;2227.20;;;;;;5070927;28;20050;-70
2021/04/11 03:42:22;;;;;;;15.48;8.18;;;77.40;2227.20;;;;;;5071422;28;20095;-69
2021/04/11 03:44:51;;;;;;;17.67;8.55;;;77.40;2227.20;;;;;;5071447;28;20430;-70
2021/04/11 03:47:24;;;;;;;14.05;7.35;;;77.50;2227.20;;;;;;5071257;28;20020;-70
2021/04/11 03:50:28;;;;;;;15.73;7.88;;;77.50;2227.20;;;;;;5069825;28;20067;-70
2021/04/11 03:53:15;;;;;;;13.70;7.38;;;77.50;2227.20;;;;;;5068881;28;20064;-71
2021/04/11 03:55:46;;;;;;;13.02;8.00;;;77.50;2227.20;;;;;;5085095;28;20048;-70
2021/04/11 03:58:18;;;;;;;13.20;7.68;;;77.50;2227.20;;;;;;5071379;28;20028;-70
2021/04/11 04:00:52;;;;;;;12.90;7.40;;;77.60;2227.20;;;;;;5070506;28;20025;-71
2021/04/11 04:03:21;;;;;;;11.85;6.90;;;77.60;2227.20;;;;;;5069688;28;20452;-71
2021/04/11 04:05:49;;;;;;;12.77;6.43;;;77.60;2227.20;;;;;;5070938;28;20534;-70
2021/04/11 04:08:15;;;;;;;11.00;5.80;;;77.70;2227.20;;;;;;5070891;28;20056;-71
2021/04/11 04:11:12;;;;;;;13.65;6.88;;;102.40;2227.20;;;;;;5070635;28;20495;-71
2021/04/11 04:13:51;;;;;;;13.20;7.65;;;102.40;2227.20;;;;;;5065909;28;20376;-72
2021/04/11 04:16:38;;;;;;;15.45;8.27;;;102.50;2227.20;;;;;;5070477;28;20078;-70
2021/04/11 04:19:25;;;;;;;13.55;7.55;;;102.50;2227.20;;;;;;5069396;28;20082;-71
2021/04/11 04:22:08;;;;;;;21.70;11.45;;;102.70;2227.20;;;;;;5070412;28;20032;-71
2021/04/11 04:24:36;;;;;;;30.52;14.18;;;102.80;2227.20;;;;;;5070693;28;20103;-73
2021/04/11 04:27:30;;;;;;;19.95;9.40;;;102.90;2227.20;;;;;;5070439;28;20031;-73
2021/04/11 04:30:25;;;;;;;15.73;8.88;;;103.10;2227.20;;;;;;5070315;28;20406;-72
2021/04/11 04:33:09;;;;;;;20.35;9.95;;;103.30;2176.00;;;;;;5015883;28;20038;-75
2021/04/11 04:35:55;;;;;;;17.15;9.68;;;128.20;2176.00;;;;;;5070019;28;20052;-72
2021/04/11 04:38:49;;;;;;;16.65;9.00;;;128.40;2176.00;;;;;;5067260;28;20024;-72
2021/04/11 04:41:36;;;;;;;18.92;10.23;;;128.80;2124.80;;;;;;5069634;28;20503;-72
2021/04/11 04:44:21;;;;;;;34.75;14.60;;;154.00;2022.40;;;;;;5070280;28;20063;-71
2021/04/11 04:47:17;;;;;;;28.10;13.70;;;154.50;1945.60;;;;;;5070277;28;20550;-72
2021/04/11 04:49:55;;;;;;;27.10;13.85;;;179.80;1843.20;;;;;;5070186;28;20024;-71
2021/04/11 04:52:27;;;;;;;23.88;13.00;;;205.20;1766.40;;;;;;5070146;28;20101;-71
2021/04/11 04:55:10;;;;;;;14.80;8.27;;;230.40;1689.60;;;;;;5070064;28;20025;-73
2021/04/11 04:57:42;;;;;;;15.82;8.40;;;230.80;1587.20;;;;;;5070192;28;20023;-73
2021/04/11 05:00:18;;;;;;;17.45;9.70;;;231.10;1561.60;;;;;;5069970;28;20031;-73
2021/04/11 05:02:58;;;;;;;20.60;11.52;;;256.30;1510.40;;;;;;5069979;28;20551;-72
2021/04/11 05:05:26;;;;;;;31.83;18.20;;;281.60;1510.40;;;;;;5069050;28;20112;-72
2021/04/11 05:08:02;;;;;;;35.50;23.08;;;282.40;1536.00;;;;;;5070142;28;20052;-73
2021/04/11 05:10:34;;;;;;;34.70;19.90;;;307.70;1484.80;;;;;;5069904;28;20045;-72
2021/04/11 05:13:14;;;;;;;25.20;17.30;;;333.10;1459.20;;;;;;5069947;28;20379;-73
2021/04/11 05:15:42;;;;;;;;;;;333.60;1459.20;;;;;;5070769;28;20488;-70
2021/04/11 05:18:26;;;;;;;20.73;14.75;;;333.60;1382.40;;;;;;5070132;28;19952;-72
2021/04/11 05:21:05;;;;;;;24.23;16.33;;;333.20;1408.00;;;;;;5069823;28;20023;-72
2021/04/11 05:23:41;;;;;;;17.92;13.07;;;333.50;1356.80;;;;;;5071309;28;20016;-73
2021/04/11 05:26:43;;;;;;;21.52;14.77;;;358.80;1305.60;;;;;;5073885;28;20114;-72
2021/04/11 05:29:21;;;;;;;17.52;12.48;;;384.10;1254.40;;;;;;5063340;28;20036;-73
2021/04/11 05:31:50;;;;;;;16.50;11.85;;;384.20;1254.40;;;;;;5074075;28;20328;-72
2021/04/11 05:34:18;;;;;;;14.35;11.10;;;359.00;1228.80;;;;;;5073774;28;20021;-73
2021/04/11 05:37:05;;;;;;;18.88;12.85;;;359.30;1254.40;;;;;;5073708;28;20529;-71
2021/04/11 05:39:42;;;;;;;13.23;10.05;;;384.20;1228.80;;;;;;5073591;28;20035;-72
2021/04/11 05:42:16;;;;;;;15.23;10.60;;;359.10;1254.40;;;;;;5073530;28;20052;-71
2021/04/11 05:44:47;;;;;;;15.85;11.35;;;384.20;1254.40;;;;;;5074006;28;20025;-72
2021/04/11 05:47:36;;;;;;;15.25;11.48;;;384.90;1203.20;;;;;;5073326;28;20024;-72
2021/04/11 05:50:12;;;;;;;15.40;11.30;;;384.70;1203.20;;;;;;5073337;28;20028;-75
2021/04/11 05:52:48;;;;;;;23.95;14.13;;;384.90;1228.80;;;;;;5073473;28;20033;-72
2021/04/11 05:55:16;;;;;;;17.77;12.25;;;409.90;1203.20;;;;;;5073275;28;20024;-72
2021/04/11 05:57:54;;;;;;;14.48;10.80;;;410.40;1152.00;;;;;;5073299;28;20023;-75
2021/04/11 06:00:30;;;;;;;14.85;11.00;;;410.00;1152.00;;;;;;5073230;28;20017;-72
2021/04/11 06:03:00;;;;;;;14.98;11.05;;;409.70;1152.00;;;;;;5073167;28;20098;-72
2021/04/11 06:05:31;;;;;;;13.32;11.00;;;409.70;1177.60;;;;;;5073687;28;20386;-72
2021/04/11 06:08:29;;;;;;;14.15;10.93;;;410.50;1126.40;;;;;;5073231;28;20025;-73
2021/04/11 06:11:04;;;;;;;14.40;10.57;;;435.60;1100.80;;;;;;5072895;28;20051;-71
2021/04/11 06:14:01;;;;;;;15.23;11.20;;;435.60;1100.80;;;;;;5073031;28;20025;-70
2021/04/11 06:16:29;;;;;;;17.67;12.15;;;461.20;1075.20;;;;;;5073046;28;20032;-70
2021/04/11 06:18:56;;;;;;;21.73;15.57;;;461.30;1075.20;;;;;;5071587;28;20032;-71
2021/04/11 06:21:31;;;;;;;16.75;12.20;;;461.50;1075.20;;;;;;5072876;28;20074;-72
2021/04/11 06:24:03;;;;;;;17.13;11.23;;;461.30;1075.20;;;;;;5072816;28;20028;-69
2021/04/11 06:26:35;;;;;;;15.27;10.77;;;460.90;1075.20;;;;;;5072762;28;20056;-72
2021/04/11 06:29:06;;;;;;;15.38;10.80;;;435.50;1100.80;;;;;;5072499;28;20542;-71
2021/04/11 06:31:37;;;;;;;17.08;12.13;;;435.60;1100.80;;;;;;5072642;28;20056;-76
2021/04/11 06:34:15;;;;;;;16.17;11.63;;;460.90;1100.80;;;;;;5072570;28;20048;-76
2021/04/11 06:36:44;;;;;;;12.75;9.18;;;512.20;1024.00;;;;;;5075456;28;20035;-71
2021/04/11 06:39:16;;;;;;;12.90;9.10;;;487.00;1024.00;;;;;;5078564;28;20021;-70
2021/04/11 06:41:45;;;;;;;12.02;8.07;;;435.50;1100.80;;;;;;5078616;28;20017;-71
2021/04/11 06:44:43;;;;;;;11.27;7.35;;;435.80;1075.20;;;;;;5066184;28;20397;-74
2021/04/11 06:47:32;;;;;;;11.30;8.30;;;486.70;1024.00;;;;;;5072144;28;20024;-70
2021/04/11 06:50:24;;;;;;;12.85;8.23;;;538.00;972.80;;;;;;5072053;28;20391;-71
2021/04/11 06:53:21;;;;;;;11.10;8.13;;;537.90;947.20;;;;;;5067152;28;20019;-71
2021/04/11 06:55:59;;;;;;;11.93;7.97;;;512.70;947.20;;;;;;5072207;28;20020;-71
2021/04/11 06:58:43;;;;;;;12.25;7.75;;;512.40;921.60;;;;;;5072155;28;20103;-70
2021/04/11 07:01:27;;;;;;;11.05;7.53;;;538.20;947.20;;;;;;5065914;28;20496;-71
2021/04/11 07:04:08;;;;;;;12.13;7.78;;;538.30;921.60;;;;;;5071867;28;20091;-72
2021/04/11 07:06:53;;;;;;;11.98;7.95;;;563.40;921.60;;;;;;5071752;28;20035;-73
2021/04/11 07:09:45;;;;;;;10.93;7.80;;;564.10;870.40;;;;;;5071902;28;20039;-71
2021/04/11 07:12:14;;;;;;;10.80;8.00;;;563.60;896.00;;;;;;5071864;28;20062;-70
2021/04/11 07:15:01;;;;;;;12.63;7.80;;;564.00;896.00;;;;;;5071779;28;20501;-71
2021/04/11 07:18:15;;;;;;;14.35;8.80;;;588.90;896.00;;;;;;5071980;28;20029;-72
2021/04/11 07:21:01;;;;;;;10.45;7.97;;;589.60;870.40;;;;;;5066212;28;20029;-72
2021/04/11 07:23:54;;;;;;;12.02;8.13;;;589.70;844.80;;;;;;5071586;28;20028;-75
2021/04/11 07:26:41;;;;;;;9.38;7.28;;;589.60;844.80;;;;;;5076363;28;20078;-72
2021/04/11 07:29:36;;;;;;;15.05;8.02;;;589.30;870.40;;;;;;5070896;28;20115;-71
2021/04/11 07:32:14;;;;;;;11.75;7.60;;;615.00;819.20;;;;;;5071408;28;20025;-71
2021/04/11 07:35:14;;;;;;;10.70;7.10;;;640.50;793.60;;;;;;5079890;28;20035;-71
2021/04/11 07:37:54;;;;;;;11.85;7.80;;;665.80;793.60;;;;;;5079315;28;20159;-73
2021/04/11 07:40:27;;;;;;;10.75;6.63;;;666.40;768.00;;;;;;5081512;28;20490;-74
2021/04/11 07:43:17;;;;;;;12.48;7.38;;;615.10;793.60;;;;;;5088295;28;20036;-72
2021/04/11 07:45:48;;;;;;;9.38;6.45;;;640.40;793.60;;;;;;5085213;28;20052;-71
2021/04/11 07:48:51;;;;;;;10.88;7.18;;;665.60;793.60;;;;;;5087945;28;20530;-71
2021/04/11 07:51:48;;;;;;;11.32;7.20;;;665.60;793.60;;;;;;5086689;28;20048;-71
2021/04/11 07:54:51;;;;;;;10.13;6.85;;;691.20;768.00;;;;;;5087048;28;20027;-72
2021/04/11 07:57:41;;;;;;;12.07;8.93;;;691.80;742.40;;;;;;5084857;28;20031;-70
2021/04/11 08:00:44;;;;;;;11.80;6.88;;;691.20;768.00;;;;;;5089017;28;20031;-71
2021/04/11 08:03:40;;;;;;;10.60;6.68;;;691.70;768.00;;;;;;5086581;28;20031;-70
2021/04/11 08:06:28;;;;;;;8.25;6.15;;;742.60;768.00;;;;;;5086931;28;20035;-69
2021/04/11 08:09:02;;;;;;;10.02;6.07;;;716.80;793.60;;;;;;5085997;28;20032;-72
2021/04/11 08:12:11;;;;;;;9.10;5.65;;;691.90;742.40;;;;;;5084513;28;20091;-71
2021/04/11 08:15:17;;;;;;;11.85;6.70;;;717.60;742.40;;;;;;5074838;28;20085;-72
2021/04/11 08:18:00;;;;;;;11.23;7.18;;;820.10;691.20;;;;;;5081468;28;20493;-71
2021/04/11 08:20:48;;;;;;;8.93;5.40;;;845.20;665.60;;;;;;5074107;28;20107;-74
2021/04/11 08:23:46;;;;;;;9.98;5.25;;;871.30;640.00;;;;;;5089897;28;20507;-71
2021/04/11 08:26:31;;;;;;;7.93;4.97;;;896.70;614.40;;;;;;5087446;28;20019;-72
2021/04/11 08:29:15;;;;;;;8.75;4.30;;;922.50;614.40;;;;;;5085797;28;20052;-71
2021/04/11 08:31:47;;;;;;;9.40;4.57;;;922.50;588.80;;;;;;5087187;28;20028;-71
2021/04/11 08:34:34;;;;;;;8.52;4.20;;;896.10;614.40;;;;;;5088885;28;20048;-74
2021/04/11 08:37:31;;;;;;;8.50;4.20;;;896.10;614.40;;;;;;5072830;28;20028;-70
2021/04/11 08:40:12;;;;;;;7.63;4.35;;;896.90;614.40;;;;;;5069845;28;20028;-69
2021/04/11 08:43:08;;;;;;;9.88;5.25;;;896.30;614.40;;;;;;5062935;28;20471;-72
2021/04/11 08:45:43;;;;;;;7.68;4.10;;;921.90;614.40;;;;;;5071639;28;20036;-71
2021/04/11 08:48:23;;;;;;;7.43;3.95;;;845.30;665.60;;;;;;5088241;28;20021;-70
2021/04/11 08:50:57;;;;;;;11.35;4.10;;;871.10;640.00;;;;;;5087002;28;20529;-76
2021/04/11 08:53:44;;;;;;;7.57;4.13;;;845.20;665.60;;;;;;5086907;28;20024;-70
2021/04/11 08:57:03;;;;;;;7.35;4.10;;;870.70;640.00;;;;;;5073435;28;20028;-70
2021/04/11 08:59:55;;;;;;;9.02;4.47;;;896.70;614.40;;;;;;5014562;28;20029;-70
2021/04/11 09:02:36;;;;;;;6.65;3.50;;;870.70;640.00;;;;;;5069429;28;20040;-70
2021/04/11 09:05:21;;;;;;;6.47;3.47;;;922.00;614.40;;;;;;5069989;28;20028;-70
2021/04/11 09:08:06;;;;;;;7.07;3.88;;;896.90;588.80;;;;;;5072366;28;20024;-70
2021/04/11 09:10:55;;;;;;;9.15;3.70;;;896.40;614.40;;;;;;5088936;28;20047;-69
2021/04/11 09:13:33;;;;;;;7.15;3.70;;;896.10;614.40;;;;;;5086534;28;20494;-70
2021/04/11 09:16:10;;;;;;;9.00;3.95;;;870.90;614.40;;;;;;5079374;28;20045;-69
2021/04/11 09:19:16;;;;;;;9.82;3.50;;;845.50;665.60;;;;;;5073860;28;20024;-67
2021/04/11 09:21:54;;;;;;;8.40;3.70;;;870.80;614.40;;;;;;5064527;28;20032;-70
2021/04/11 09:24:53;;;;;;;7.70;3.65;;;870.40;640.00;;;;;;5070014;28;20020;-69
2021/04/11 09:27:43;;;;;;;8.88;3.70;;;870.90;614.40;;;;;;5065593;28;20395;-69
2021/04/11 09:30:27;;;;;;;;;;;793.70;691.20;;;;;;5076048;28;20394;-69
2021/04/11 09:32:59;;;;;;;6.60;3.50;;;717.00;716.80;;;;;;5073314;28;19981;-69
2021/04/11 09:35:42;;;;;;;7.47;3.72;;;691.80;742.40;;;;;;5070327;28;20035;-71
2021/04/11 09:38:20;;;;;;;7.80;4.35;;;666.50;768.00;;;;;;5082838;28;20028;-70
2021/04/11 09:41:13;;;;;;;12.10;3.80;;;614.70;768.00;;;;;;5083831;28;20099;-72
2021/04/11 09:43:53;;;;;;;10.85;4.68;;;614.40;768.00;;;;;;5083277;28;20024;-72
2021/04/11 09:46:40;;;;;;;10.05;4.88;;;589.30;793.60;;;;;;5075936;28;20024;-70
2021/04/11 09:49:37;;;;;;;15.80;10.93;;;588.90;819.20;;;;;;5069946;28;20036;-73
2021/04/11 09:52:50;;;;;;;15.75;10.35;;;589.70;819.20;;;;;;5064672;28;20486;-73
2021/04/11 09:55:19;;;;;;;14.38;8.25;;;589.70;819.20;;;;;;5039859;28;20033;-73
2021/04/11 09:58:11;;;;;;;8.48;4.90;;;589.50;793.60;;;;;;5028388;28;20025;-75
2021/04/11 10:01:00;;;;;;;6.10;3.67;;;589.50;819.20;;;;;;5061639;28;20111;-73
2021/04/11 10:03:25;;;;;;;7.22;4.28;;;589.70;768.00;;;;;;5066237;28;20386;-73
2021/04/11 10:06:14;;;;;;;6.10;3.80;;;589.10;793.60;;;;;;5087637;28;20032;-72
2021/04/11 10:08:46;;;;;;;8.07;5.20;;;563.80;819.20;;;;;;5075517;28;20055;-71
2021/04/11 10:11:36;;;;;;;9.23;4.88;;;564.00;819.20;;;;;;5088535;28;20101;-71
2021/04/11 10:14:21;;;;;;;7.60;3.72;;;588.90;793.60;;;;;;5090875;28;20485;-74
2021/04/11 10:16:49;;;;;;;6.28;3.50;;;564.00;819.20;;;;;;5086161;28;20103;-70
2021/04/11 10:19:47;;;;;;;8.55;3.97;;;563.40;793.60;;;;;;5089232;28;20020;-73
2021/04/11 10:22:26;;;;;;;8.10;4.20;;;563.50;819.20;;;;;;5089622;28;20031;-71
2021/04/11 10:25:27;;;;;;;7.47;4.00;;;563.70;819.20;;;;;;5087028;28;20051;-71
2021/04/11 10:28:11;;;;;;;6.40;3.60;;;563.80;819.20;;;;;;5071835;28;20081;-72
2021/04/11 10:30:38;;;;;;;8.95;4.65;;;563.80;844.80;;;;;;5085071;28;20378;-71
2021/04/11 10:33:31;;;;;;;7.78;3.53;;;563.60;844.80;;;;;;5078861;28;20024;-71
2021/04/11 10:36:14;;;;;;;8.32;3.83;;;538.50;819.20;;;;;;5077083;28;20492;-72
2021/04/11 10:38:42;;;;;;;6.97;3.15;;;563.40;819.20;;;;;;5089595;28;20051;-70
2021/04/11 10:41:32;;;;;;;6.55;3.78;;;563.80;870.40;;;;;;5089793;28;20063;-73
2021/04/11 10:44:36;;;;;;;6.90;3.20;;;563.90;844.80;;;;;;5086376;28;20043;-69
2021/04/11 10:47:26;;;;;;;6.38;3.00;;;563.50;768.00;;;;;;5084656;28;20482;-69
2021/04/11 10:49:58;;;;;;;5.65;3.25;;;563.50;768.00;;;;;;5090696;28;20098;-74
2021/04/11 10:52:45;;;;;;;7.18;3.70;;;563.50;742.40;;;;;;5090880;28;20378;-70
2021/04/11 10:55:26;;;;;;;7.20;4.25;;;563.70;819.20;;;;;;5087788;28;20394;-70
2021/04/11 10:58:10;;;;;;;6.82;3.50;;;564.10;819.20;;;;;;5076851;28;20478;-70
2021/04/11 11:01:06;;;;;;;6.43;3.70;;;564.10;819.20;;;;;;5089172;28;20016;-70
2021/04/11 11:04:04;;;;;;;5.60;3.38;;;563.80;793.60;;;;;;5088757;28;20023;-70
2021/04/11 11:06:39;;;;;;;7.65;3.50;;;563.90;793.60;;;;;;5080512;28;20035;-70
2021/04/11 11:09:07;;;;;;;8.80;3.60;;;563.90;793.60;;;;;;5079218;28;20020;-70
2021/04/11 11:12:00;;;;;;;9.25;3.25;;;564.00;793.60;;;;;;5080821;28;20044;-70
2021/04/11 11:14:51;;;;;;;7.00;3.35;;;563.80;793.60;;;;;;5085185;28;20024;-70
2021/04/11 11:17:55;;;;;;;6.43;3.75;;;588.80;768.00;;;;;;5079926;28;20024;-70
2021/04/11 11:20:31;;;;;;;7.05;4.15;;;564.10;768.00;;;;;;5084575;28;20020;-70
2021/04/11 11:22:59;;;;;;;5.43;3.00;;;588.80;768.00;;;;;;5070824;28;20478;-71
2021/04/11 11:25:44;;;;;;;8.18;4.25;;;563.80;742.40;;;;;;5074770;28;20106;-70
2021/04/11 11:28:22;;;;;;;6.85;3.58;;;563.90;768.00;;;;;;5069778;28;20020;-70
2021/04/11 11:30:59;;;;;;;7.70;4.00;;;563.90;793.60;;;;;;5076696;28;20478;-70
2021/04/11 11:33:45;;;;;;;5.75;3.33;;;564.10;768.00;;;;;;5084651;28;20016;-75
2021/04/11 11:36:26;;;;;;;7.72;3.97;;;563.80;742.40;;;;;;5079446;28;20393;-72
2021/04/11 11:39:12;;;;;;;7.15;4.40;;;563.80;768.00;;;;;;5084955;28;20111;-73
2021/04/11 11:41:49;;;;;;;6.20;3.60;;;564.10;742.40;;;;;;5074558;28;20036;-71
2021/04/11 11:44:26;;;;;;;7.03;4.07;;;588.90;768.00;;;;;;5088218;28;20028;-71
2021/04/11 11:47:06;;;;;;;5.60;3.20;;;588.90;768.00;;;;;;5089183;28;20086;-71
2021/04/11 11:50:25;;;;;;;8.10;3.17;;;588.90;742.40;;;;;;5090223;28;20103;-71
2021/04/11 11:53:15;;;;;;;5.50;3.20;;;564.10;742.40;;;;;;4997045;28;20073;-72
2021/04/11 11:55:54;;;;;;;6.05;3.50;;;589.00;768.00;;;;;;5005654;28;20512;-73
2021/04/11 11:58:29;;;;;;;6.70;4.07;;;589.20;742.40;;;;;;5066322;28;20139;-75
2021/04/11 12:01:06;;;;;;;7.60;3.90;;;588.90;793.60;;;;;;5072089;28;20025;-73
2021/04/11 12:03:37;;;;;;;7.22;4.03;;;589.00;793.60;;;;;;5070008;28;20102;-71
2021/04/11 12:06:06;;;;;;;;;;;589.30;793.60;;;;;;5090007;28;20024;-71
2021/04/11 12:08:43;;;;;;;8.88;4.60;;;588.80;793.60;;;;;;5074465;28;20007;-71
2021/04/11 12:11:18;;;;;;;9.15;4.60;;;589.00;819.20;;;;;;5075826;28;20503;-71
2021/04/11 12:14:16;;;;;;;7.72;4.43;;;589.20;793.60;;;;;;5070917;28;20372;-71
2021/04/11 12:17:44;;;;;;;8.60;4.38;;;589.00;793.60;;;;;;5070581;28;20027;-71
2021/04/11 12:20:13;;;;;;;7.18;4.28;;;588.80;793.60;;;;;;5027970;28;20025;-71
2021/04/11 12:23:06;;;;;;;8.93;4.80;;;589.00;793.60;;;;;;5057887;28;20043;-72
2021/04/11 12:25:34;;;;;;;8.07;4.72;;;589.20;819.20;;;;;;5062932;28;20527;-70
2021/04/11 12:28:13;;;;;;;9.02;5.00;;;589.40;768.00;;;;;;5069358;28;20031;-72
2021/04/11 12:30:42;;;;;;;9.90;5.13;;;589.40;793.60;;;;;;5057476;28;20025;-72
2021/04/11 12:33:17;;;;;;;7.75;4.43;;;589.00;768.00;;;;;;5069955;28;20059;-71
2021/04/11 12:36:19;;;;;;;8.20;4.35;;;589.00;768.00;;;;;;5070378;28;20020;-70
2021/04/11 12:39:02;;;;;;;9.35;5.30;;;589.00;793.60;;;;;;5069898;28;20025;-72
2021/04/11 12:41:38;;;;;;;8.15;5.05;;;589.10;793.60;;;;;;5070651;28;20390;-72
2021/04/11 12:44:34;;;;;;;6.68;4.25;;;589.20;793.60;;;;;;5070061;28;20491;-73
2021/04/11 12:47:18;;;;;;;9.02;5.30;;;589.00;793.60;;;;;;5083666;28;20028;-72
2021/04/11 12:49:54;;;;;;;12.15;6.15;;;589.10;793.60;;;;;;5069807;28;20056;-72
2021/04/11 12:52:32;;;;;;;12.30;6.60;;;589.00;768.00;;;;;;5070048;28;20023;-71
2021/04/11 12:55:00;;;;;;;11.60;5.65;;;588.80;793.60;;;;;;5070155;28;20032;-72
2021/04/11 12:57:30;;;;;;;14.68;7.28;;;588.90;793.60;;;;;;5069656;28;20099;-71
2021/04/11 13:00:29;;;;;;;16.23;7.60;;;589.00;819.20;;;;;;5069461;28;20096;-72
2021/04/11 13:03:04;;;;;;;7.20;4.13;;;589.20;793.60;;;;;;5061009;28;20555;-72
2021/04/11 13:05:51;;;;;;;7.28;4.00;;;589.00;768.00;;;;;;5072533;28;20031;-71
2021/04/11 13:08:36;;;;;;;12.20;7.38;;;589.00;768.00;;;;;;5082791;28;20020;-71
2021/04/11 13:11:06;;;;;;;9.93;5.00;;;589.00;793.60;;;;;;5080499;28;20066;-71
2021/04/11 13:13:42;;;;;;;6.63;3.80;;;588.90;768.00;;;;;;5075434;28;20019;-72